Time;durP1;ratioP1;P1;durP2;ratioP2;P2;SDS_P1;SDS_P2;PMS_P1;PMS_P2;Temp;Humidity;BMP_temperature;BMP_pressure;BME280_temperature;BME280_humidity;BME280_pressure;Samples;Min_cycle;Max_cycle;Signal;HPM_P1;HPM_P2
2021/04/18 00:00:22;;;;;;;7.45;5.68;;;6.30;75.20;;;;;;5040367;28;20080;-72
2021/04/18 00:02:49;;;;;;;8.98;5.80;;;6.20;75.80;;;;;;5040598;28;20022;-72
2021/04/18 00:05:17;;;;;;;6.57;5.88;;;6.00;77.00;;;;;;5040463;28;20029;-72
2021/04/18 00:07:43;;;;;;;8.40;5.93;;;5.90;77.10;;;;;;5040484;28;20356;-72
2021/04/18 00:10:10;;;;;;;9.55;6.45;;;5.80;77.70;;;;;;5040419;28;20033;-72
2021/04/18 00:12:36;;;;;;;9.73;6.63;;;5.70;78.40;;;;;;5040122;28;20061;-73
2021/04/18 00:15:05;;;;;;;12.18;7.30;;;5.60;78.70;;;;;;5040325;28;20045;-72
2021/04/18 00:17:31;;;;;;;11.13;7.05;;;5.50;78.70;;;;;;5040010;28;20418;-72
2021/04/18 00:19:56;;;;;;;8.05;6.65;;;5.50;78.80;;;;;;5040290;28;20037;-72
2021/04/18 00:22:22;;;;;;;8.63;7.68;;;5.40;78.20;;;;;;5040281;28;20393;-72
2021/04/18 00:24:47;;;;;;;9.52;8.02;;;5.40;78.90;;;;;;5040028;28;20068;-72
2021/04/18 00:27:13;;;;;;;8.40;7.20;;;5.40;78.70;;;;;;5040184;28;20037;-72
2021/04/18 00:29:39;;;;;;;11.80;7.68;;;5.40;78.70;;;;;;5040100;28;20034;-72
2021/04/18 00:32:05;;;;;;;8.60;6.43;;;5.50;79.00;;;;;;5040017;28;20032;-72
2021/04/18 00:34:30;;;;;;;7.80;6.53;;;5.50;78.90;;;;;;5039577;28;20026;-72
2021/04/18 00:36:56;;;;;;;10.43;7.03;;;5.50;79.50;;;;;;5039618;28;20117;-72
2021/04/18 00:39:22;;;;;;;11.07;8.23;;;5.40;79.40;;;;;;5039605;28;20029;-72
2021/04/18 00:41:47;;;;;;;9.70;7.68;;;5.50;79.60;;;;;;5039863;28;20025;-72
2021/04/18 00:44:13;;;;;;;11.15;8.77;;;5.40;79.60;;;;;;5039741;28;20110;-72
2021/04/18 00:46:39;;;;;;;9.27;8.20;;;5.40;80.00;;;;;;5039430;28;20290;-72
2021/04/18 00:49:06;;;;;;;12.95;8.55;;;5.50;80.20;;;;;;5039626;28;20029;-72
2021/04/18 00:51:33;;;;;;;11.95;8.52;;;5.40;79.00;;;;;;5039706;28;20025;-72
2021/04/18 00:53:58;;;;;;;12.68;8.07;;;5.50;78.60;;;;;;5039674;28;20109;-73
2021/04/18 00:56:24;;;;;;;15.02;7.57;;;5.60;79.10;;;;;;5039614;28;20121;-72
2021/04/18 00:58:50;;;;;;;8.95;8.02;;;5.70;79.10;;;;;;5039594;28;20048;-72
2021/04/18 01:01:16;;;;;;;9.80;7.85;;;5.70;78.70;;;;;;5039552;28;20071;-72
2021/04/18 01:03:41;;;;;;;9.43;7.35;;;5.70;79.00;;;;;;5038944;28;20040;-72
2021/04/18 01:06:07;;;;;;;9.38;8.20;;;5.60;78.80;;;;;;5039271;28;20060;-72
2021/04/18 01:08:33;;;;;;;8.27;7.47;;;5.60;78.80;;;;;;5039382;28;20038;-72
2021/04/18 01:10:59;;;;;;;10.48;7.28;;;5.60;79.00;;;;;;5039299;28;20029;-72
2021/04/18 01:13:25;;;;;;;8.88;7.60;;;5.60;79.00;;;;;;5039222;28;20104;-72
2021/04/18 01:15:52;;;;;;;10.00;7.35;;;5.60;80.10;;;;;;5038943;28;20109;-72
2021/04/18 01:18:18;;;;;;;9.00;7.30;;;5.60;79.40;;;;;;5038857;28;20056;-72
2021/04/18 01:20:44;;;;;;;9.13;7.50;;;5.50;78.80;;;;;;5039189;28;20156;-72
2021/04/18 01:23:09;;;;;;;9.30;7.25;;;5.50;79.10;;;;;;5038978;28;20061;-72
2021/04/18 01:25:40;;;;;;;9.32;7.20;;;5.60;79.10;;;;;;5038704;28;20049;-72
2021/04/18 01:28:06;;;;;;;9.90;8.32;;;5.50;78.80;;;;;;5039032;28;20067;-72
2021/04/18 01:30:33;;;;;;;17.60;8.10;;;5.50;79.60;;;;;;5038602;28;20513;-72
2021/04/18 01:33:04;;;;;;;9.93;7.72;;;5.50;78.90;;;;;;5038633;28;20057;-72
2021/04/18 01:35:30;;;;;;;9.18;8.00;;;5.50;78.50;;;;;;5038902;28;20100;-72
2021/04/18 01:37:56;;;;;;;7.68;6.60;;;5.50;79.00;;;;;;5038831;28;20345;-72
2021/04/18 01:40:25;;;;;;;8.13;6.65;;;5.40;78.40;;;;;;5038503;28;20034;-72
2021/04/18 01:42:51;;;;;;;10.18;7.20;;;5.40;78.50;;;;;;5038707;28;20034;-72
2021/04/18 01:45:18;;;;;;;11.20;7.80;;;5.30;78.40;;;;;;5038630;28;20104;-72
2021/04/18 01:47:45;;;;;;;9.73;7.18;;;5.40;78.30;;;;;;5038677;28;20401;-72
2021/04/18 01:50:14;;;;;;;10.05;7.55;;;5.40;78.60;;;;;;5038580;28;20037;-72
2021/04/18 01:52:40;;;;;;;12.80;7.88;;;5.50;78.20;;;;;;5038284;28;20030;-72
2021/04/18 01:55:07;;;;;;;11.68;7.93;;;5.50;78.00;;;;;;5038613;28;20027;-72
2021/04/18 01:57:34;;;;;;;11.13;8.13;;;5.50;77.00;;;;;;5038111;28;20041;-72
2021/04/18 02:00:00;;;;;;;9.13;7.32;;;5.60;77.10;;;;;;5038165;28;20022;-72
2021/04/18 02:02:25;;;;;;;10.57;8.50;;;5.60;77.40;;;;;;5038395;28;20040;-72
2021/04/18 02:04:54;;;;;;;9.40;7.93;;;5.50;77.90;;;;;;5037961;28;20063;-72
2021/04/18 02:07:20;;;;;;;11.75;9.00;;;5.50;78.20;;;;;;5038317;28;20029;-72
2021/04/18 02:09:46;;;;;;;9.27;8.13;;;5.40;79.00;;;;;;5038165;28;20314;-72
2021/04/18 02:12:12;;;;;;;9.68;7.60;;;5.30;78.80;;;;;;5038172;28;20041;-72
2021/04/18 02:14:37;;;;;;;10.05;7.88;;;5.30;79.20;;;;;;5037786;28;20314;-72
2021/04/18 02:17:04;;;;;;;11.40;8.10;;;5.30;79.00;;;;;;5036819;28;20049;-72
2021/04/18 02:19:30;;;;;;;10.93;7.43;;;5.30;78.30;;;;;;5037738;28;20033;-72
2021/04/18 02:21:57;;;;;;;10.32;8.38;;;5.40;78.70;;;;;;5038017;28;20030;-72
2021/04/18 02:24:23;;;;;;;12.55;8.65;;;5.40;79.10;;;;;;5037809;28;20463;-72
2021/04/18 02:26:49;;;;;;;10.10;7.70;;;5.40;79.10;;;;;;5037491;28;20049;-72
2021/04/18 02:29:14;;;;;;;10.00;7.90;;;5.30;79.00;;;;;;5037775;28;20418;-72
2021/04/18 02:31:40;;;;;;;11.07;8.43;;;5.40;79.10;;;;;;5037517;28;20112;-72
2021/04/18 02:34:07;;;;;;;10.73;7.88;;;5.30;78.40;;;;;;5037676;28;20036;-72
2021/04/18 02:36:32;;;;;;;12.95;8.48;;;5.40;77.60;;;;;;5037708;28;20029;-72
2021/04/18 02:38:58;;;;;;;9.90;6.63;;;5.50;78.30;;;;;;5037751;28;20021;-72
2021/04/18 02:41:24;;;;;;;10.52;7.20;;;5.60;77.20;;;;;;5037386;28;20433;-72
2021/04/18 02:43:49;;;;;;;12.38;7.15;;;5.70;77.30;;;;;;5037523;28;20026;-72
2021/04/18 02:46:15;;;;;;;9.30;7.82;;;5.70;77.60;;;;;;5037550;28;20036;-72
2021/04/18 02:48:41;;;;;;;9.70;7.30;;;5.70;77.50;;;;;;5037525;28;20350;-72
2021/04/18 02:51:07;;;;;;;11.93;7.43;;;5.70;77.60;;;;;;5037463;28;20406;-72
2021/04/18 02:53:33;;;;;;;8.60;7.10;;;5.60;77.70;;;;;;5036965;28;20029;-72
2021/04/18 02:55:58;;;;;;;8.77;7.18;;;5.50;77.30;;;;;;5037094;28;20429;-72
2021/04/18 02:58:24;;;;;;;10.10;7.38;;;5.60;77.70;;;;;;5037046;28;20026;-73
2021/04/18 03:00:50;;;;;;;9.52;7.45;;;5.60;77.70;;;;;;5037335;28;20034;-72
2021/04/18 03:03:15;;;;;;;9.95;7.22;;;5.70;76.90;;;;;;5036985;28;20108;-72
2021/04/18 03:05:41;;;;;;;8.45;6.45;;;5.70;77.40;;;;;;5036842;28;20067;-72
2021/04/18 03:08:07;;;;;;;10.50;7.43;;;5.70;77.30;;;;;;5036881;28;20117;-73
2021/04/18 03:10:33;;;;;;;8.25;7.28;;;5.70;77.20;;;;;;5037141;28;20029;-72
2021/04/18 03:12:59;;;;;;;11.40;8.05;;;5.60;77.10;;;;;;5036824;28;20421;-72
2021/04/18 03:15:25;;;;;;;8.13;6.72;;;5.60;77.10;;;;;;5037062;28;20056;-72
2021/04/18 03:17:51;;;;;;;8.85;7.13;;;5.70;76.50;;;;;;5036321;28;20033;-72
2021/04/18 03:20:17;;;;;;;10.25;6.75;;;5.80;75.80;;;;;;5037065;28;20072;-72
2021/04/18 03:22:43;;;;;;;7.30;6.22;;;5.90;76.00;;;;;;5037010;28;20036;-72
2021/04/18 03:25:10;;;;;;;7.78;6.35;;;6.00;75.00;;;;;;5036810;28;20090;-72
2021/04/18 03:27:35;;;;;;;8.18;6.45;;;6.10;75.10;;;;;;5036656;28;20465;-72
2021/04/18 03:30:02;;;;;;;14.90;7.60;;;6.20;74.80;;;;;;5036551;28;20148;-72
2021/04/18 03:32:27;;;;;;;11.02;7.53;;;6.20;74.40;;;;;;5036595;28;20021;-72
2021/04/18 03:34:53;;;;;;;9.82;6.78;;;6.20;74.80;;;;;;5036534;28;20032;-72
2021/04/18 03:37:19;;;;;;;8.48;6.57;;;6.20;74.50;;;;;;5036858;28;20024;-72
2021/04/18 03:39:44;;;;;;;9.23;6.70;;;6.20;74.30;;;;;;5036903;28;20397;-72
2021/04/18 03:42:10;;;;;;;10.57;6.88;;;6.10;75.00;;;;;;5036878;28;20029;-72
2021/04/18 03:44:36;;;;;;;7.60;6.70;;;6.10;74.80;;;;;;5036742;28;20052;-72
2021/04/18 03:47:02;;;;;;;9.00;6.75;;;6.10;75.20;;;;;;5036475;28;20040;-72
2021/04/18 03:49:28;;;;;;;8.30;6.13;;;6.10;74.30;;;;;;5036733;28;20040;-72
2021/04/18 03:51:54;;;;;;;9.15;6.22;;;6.10;74.40;;;;;;5036756;28;20026;-72
2021/04/18 03:54:21;;;;;;;8.73;5.68;;;6.20;74.20;;;;;;5036829;28;20036;-72
2021/04/18 03:56:48;;;;;;;8.68;5.90;;;6.20;75.10;;;;;;5036733;28;20021;-72
2021/04/18 03:59:14;;;;;;;8.90;6.22;;;6.20;74.30;;;;;;5036681;28;20033;-72
2021/04/18 04:01:40;;;;;;;9.07;6.68;;;6.20;75.10;;;;;;5036650;28;20301;-72
2021/04/18 04:04:06;;;;;;;7.90;6.20;;;6.20;74.20;;;;;;5036600;28;20068;-73
2021/04/18 04:06:31;;;;;;;9.07;7.10;;;6.10;74.60;;;;;;5036597;28;20144;-72
2021/04/18 04:08:57;;;;;;;9.20;6.88;;;6.10;74.70;;;;;;5036561;28;20022;-72
2021/04/18 04:11:22;;;;;;;8.63;6.53;;;6.10;75.20;;;;;;5036217;28;20413;-72
2021/04/18 04:13:48;;;;;;;7.22;6.47;;;6.10;75.40;;;;;;5036491;28;20405;-72
2021/04/18 04:16:14;;;;;;;9.25;7.10;;;6.00;75.30;;;;;;5036500;28;20105;-72
2021/04/18 04:18:39;;;;;;;8.98;6.60;;;6.00;74.80;;;;;;5036519;28;20028;-72
2021/04/18 04:21:05;;;;;;;9.75;6.90;;;6.00;76.20;;;;;;5036263;28;20095;-72
2021/04/18 04:23:31;;;;;;;9.00;6.22;;;6.00;76.90;;;;;;5036198;28;20333;-72
2021/04/18 04:25:57;;;;;;;12.27;7.43;;;6.00;75.90;;;;;;5036037;28;20049;-72
2021/04/18 04:28:22;;;;;;;12.48;6.60;;;6.00;76.70;;;;;;5036088;28;20397;-72
2021/04/18 04:30:48;;;;;;;8.50;6.93;;;6.00;76.60;;;;;;5036315;28;20029;-72
2021/04/18 04:33:14;;;;;;;8.23;6.70;;;6.10;75.90;;;;;;5036068;28;20410;-72
2021/04/18 04:35:40;;;;;;;7.80;6.82;;;6.10;76.50;;;;;;5035982;28;20021;-72
2021/04/18 04:38:07;;;;;;;9.25;6.53;;;6.20;75.20;;;;;;5036336;28;20361;-72
2021/04/18 04:40:33;;;;;;;11.18;7.13;;;6.20;75.10;;;;;;5038593;28;20112;-72
2021/04/18 04:42:59;;;;;;;10.82;6.97;;;6.30;75.70;;;;;;5039612;28;20409;-72
2021/04/18 04:45:24;;;;;;;9.10;7.22;;;6.30;74.80;;;;;;5039462;28;20078;-72
2021/04/18 04:47:50;;;;;;;9.95;7.20;;;6.30;75.40;;;;;;5039796;28;20022;-72
2021/04/18 04:50:16;;;;;;;8.50;6.95;;;6.30;75.20;;;;;;5039703;28;20110;-72
2021/04/18 04:52:41;;;;;;;8.85;6.22;;;6.40;74.00;;;;;;5039704;28;20287;-72
2021/04/18 04:55:08;;;;;;;9.98;5.85;;;6.40;74.40;;;;;;5039773;28;20079;-72
2021/04/18 04:57:33;;;;;;;9.80;5.93;;;6.40;76.00;;;;;;5039308;28;20321;-72
2021/04/18 04:59:59;;;;;;;8.70;7.47;;;6.40;76.20;;;;;;5039620;28;20033;-72
2021/04/18 05:02:25;;;;;;;9.02;5.97;;;6.40;75.00;;;;;;5039575;28;20072;-72
2021/04/18 05:04:50;;;;;;;8.32;6.82;;;6.30;76.40;;;;;;5039373;28;20040;-72
2021/04/18 05:07:16;;;;;;;8.65;6.25;;;6.30;74.20;;;;;;5039443;28;20037;-72
2021/04/18 05:09:42;;;;;;;9.43;6.55;;;6.40;73.60;;;;;;5039073;28;20029;-72
2021/04/18 05:12:09;;;;;;;7.82;6.55;;;6.40;72.50;;;;;;5039652;28;20021;-72
2021/04/18 05:14:34;;;;;;;7.38;5.93;;;6.60;73.60;;;;;;5039184;28;20033;-72
2021/04/18 05:17:00;;;;;;;8.65;5.82;;;6.60;74.50;;;;;;5039249;28;20030;-72
2021/04/18 05:19:26;;;;;;;10.45;6.90;;;6.70;76.40;;;;;;5039270;28;20097;-72
2021/04/18 05:21:52;;;;;;;7.45;5.95;;;6.60;75.50;;;;;;5039161;28;20029;-72
2021/04/18 05:24:17;;;;;;;8.82;6.10;;;6.70;73.40;;;;;;5038818;28;20026;-72
2021/04/18 05:26:43;;;;;;;6.65;5.93;;;6.80;73.80;;;;;;5038607;28;20049;-72
2021/04/18 05:29:09;;;;;;;7.75;6.03;;;6.90;76.10;;;;;;5039054;28;20413;-72
2021/04/18 05:31:34;;;;;;;8.23;6.25;;;6.90;73.40;;;;;;5038657;28;20436;-72
2021/04/18 05:34:00;;;;;;;9.20;6.60;;;7.00;72.90;;;;;;5038573;28;20191;-72
2021/04/18 05:36:26;;;;;;;11.73;6.75;;;7.00;71.60;;;;;;5038671;28;20057;-72
2021/04/18 05:38:52;;;;;;;7.53;6.05;;;7.10;70.70;;;;;;5038565;28;20029;-72
2021/04/18 05:41:17;;;;;;;7.93;5.97;;;7.30;71.40;;;;;;5038873;28;20029;-72
2021/04/18 05:43:43;;;;;;;8.15;6.70;;;7.40;71.90;;;;;;5038683;28;20029;-72
2021/04/18 05:46:08;;;;;;;8.23;6.65;;;7.50;71.70;;;;;;5038729;28;20067;-73
2021/04/18 05:48:34;;;;;;;8.77;6.68;;;7.50;71.60;;;;;;5038386;28;20180;-72
2021/04/18 05:51:00;;;;;;;7.78;6.60;;;7.60;70.60;;;;;;5038412;28;20030;-72
2021/04/18 05:53:25;;;;;;;8.88;5.97;;;7.60;71.50;;;;;;5038344;28;20291;-72
2021/04/18 05:55:51;;;;;;;9.60;7.00;;;7.70;70.80;;;;;;5038508;28;20041;-72
2021/04/18 05:58:17;;;;;;;8.45;6.65;;;7.80;70.20;;;;;;5038472;28;20402;-72
2021/04/18 06:00:43;;;;;;;10.80;6.53;;;7.90;70.50;;;;;;5038446;28;20104;-72
2021/04/18 06:03:09;;;;;;;7.20;6.13;;;8.10;69.50;;;;;;5038129;28;20021;-72
2021/04/18 06:05:34;;;;;;;9.40;7.35;;;8.00;68.20;;;;;;5038271;28;20067;-72
2021/04/18 06:08:00;;;;;;;9.25;7.82;;;8.00;68.70;;;;;;5038009;28;20472;-72
2021/04/18 06:10:26;;;;;;;10.98;7.97;;;8.10;70.10;;;;;;5038180;28;20035;-72
2021/04/18 06:12:52;;;;;;;13.15;7.30;;;8.30;67.80;;;;;;5038200;28;20029;-73
2021/04/18 06:15:18;;;;;;;9.80;7.57;;;8.30;71.70;;;;;;5038108;28;20026;-72
2021/04/18 06:17:44;;;;;;;10.27;7.30;;;8.40;67.80;;;;;;5038104;28;20021;-72
2021/04/18 06:20:11;;;;;;;8.80;6.88;;;8.50;68.60;;;;;;5038094;28;20402;-72
2021/04/18 06:22:37;;;;;;;8.63;6.82;;;8.60;66.50;;;;;;5038039;28;20025;-72
2021/04/18 06:25:06;;;;;;;7.20;6.50;;;8.80;68.90;;;;;;5037875;28;20319;-72
2021/04/18 06:27:32;;;;;;;8.77;7.25;;;8.90;66.90;;;;;;5037626;28;20436;-72
2021/04/18 06:29:57;;;;;;;10.20;6.97;;;9.00;67.30;;;;;;5037828;28;20064;-72
2021/04/18 06:32:23;;;;;;;10.20;7.60;;;9.10;67.80;;;;;;5037831;28;20086;-72
2021/04/18 06:34:49;;;;;;;7.80;7.00;;;9.30;67.20;;;;;;5037394;28;20032;-72
2021/04/18 06:37:14;;;;;;;10.02;7.82;;;9.40;66.50;;;;;;5037686;28;20028;-72
2021/04/18 06:39:40;;;;;;;10.65;7.10;;;9.50;65.90;;;;;;5037711;28;20063;-72
2021/04/18 06:42:06;;;;;;;13.25;7.68;;;9.50;65.50;;;;;;5037335;28;20025;-72
2021/04/18 06:44:33;;;;;;;8.05;7.10;;;9.60;65.80;;;;;;5037229;28;20026;-72
2021/04/18 06:47:01;;;;;;;9.85;7.55;;;9.60;64.80;;;;;;5036269;28;20425;-72
2021/04/18 06:49:28;;;;;;;9.73;7.72;;;9.60;66.30;;;;;;5037491;28;20030;-72
2021/04/18 06:51:54;;;;;;;12.68;8.25;;;9.60;65.00;;;;;;5037493;28;20023;-72
2021/04/18 06:54:20;;;;;;;9.30;7.80;;;9.70;65.30;;;;;;5037472;28;20075;-72
2021/04/18 06:56:47;;;;;;;8.82;7.88;;;9.80;64.30;;;;;;5037367;28;20361;-72
2021/04/18 06:59:13;;;;;;;9.40;7.60;;;9.90;65.60;;;;;;5037390;28;20055;-72
2021/04/18 07:01:38;;;;;;;8.52;7.53;;;10.10;63.90;;;;;;5036942;28;20363;-72
2021/04/18 07:04:07;;;;;;;8.93;8.00;;;10.20;64.00;;;;;;5037036;28;20026;-72
2021/04/18 07:06:38;;;;;;;8.73;7.82;;;10.30;62.10;;;;;;5037271;28;20334;-72
2021/04/18 07:09:03;;;;;;;12.20;7.65;;;10.50;63.60;;;;;;5037203;28;20029;-72
2021/04/18 07:11:51;;;;;;;9.05;6.75;;;10.50;64.50;;;;;;5036835;28;20479;-72
2021/04/18 07:14:31;;;;;;;8.07;6.88;;;10.60;64.60;;;;;;5037101;28;20072;-72
2021/04/18 07:17:08;;;;;;;11.70;7.18;;;10.50;63.10;;;;;;5037079;28;20044;-72
2021/04/18 07:19:36;;;;;;;10.80;6.97;;;10.50;64.50;;;;;;5037049;28;20113;-73
2021/04/18 07:22:02;;;;;;;9.70;7.15;;;10.40;63.90;;;;;;5037133;28;20433;-72
2021/04/18 07:24:30;;;;;;;10.05;8.43;;;10.30;64.70;;;;;;5035777;28;20033;-72
2021/04/18 07:26:59;;;;;;;9.23;7.28;;;10.20;64.90;;;;;;5037008;28;20041;-72
2021/04/18 07:29:26;;;;;;;11.27;7.63;;;10.10;64.10;;;;;;5036914;28;20087;-72
2021/04/18 07:31:53;;;;;;;11.32;7.38;;;10.00;64.30;;;;;;5036906;28;20021;-72
2021/04/18 07:34:22;;;;;;;9.23;7.47;;;10.00;66.20;;;;;;5036808;28;20022;-72
2021/04/18 07:37:06;;;;;;;9.32;7.38;;;10.00;64.80;;;;;;5036874;28;20022;-72
2021/04/18 07:39:45;;;;;;;7.93;6.65;;;10.10;66.40;;;;;;5036899;28;20105;-72
2021/04/18 07:42:39;;;;;;;13.00;8.27;;;10.10;64.70;;;;;;5036537;28;20444;-72
2021/04/18 07:45:15;;;;;;;10.30;7.85;;;10.00;63.70;;;;;;5036796;28;20048;-72
2021/04/18 07:47:43;;;;;;;9.82;8.07;;;9.90;65.00;;;;;;5036377;28;20121;-72
2021/04/18 07:50:17;;;;;;;9.68;7.10;;;9.90;64.70;;;;;;5036720;28;20026;-72
2021/04/18 07:52:46;;;;;;;8.30;7.40;;;9.80;65.60;;;;;;5036770;28;20144;-72
2021/04/18 07:55:13;;;;;;;9.40;6.72;;;9.80;65.00;;;;;;5036848;28;20031;-72
2021/04/18 07:57:39;;;;;;;9.60;7.15;;;9.90;66.60;;;;;;5036697;28;20030;-72
2021/04/18 08:00:07;;;;;;;9.68;6.90;;;10.20;62.70;;;;;;5036399;28;20087;-72
2021/04/18 08:02:33;;;;;;;7.90;6.60;;;10.40;64.30;;;;;;5036350;28;20021;-72
2021/04/18 08:05:00;;;;;;;7.60;6.30;;;10.50;62.90;;;;;;5036257;28;20106;-72
2021/04/18 08:07:26;;;;;;;9.73;7.07;;;10.70;62.30;;;;;;5036601;28;20049;-72
2021/04/18 08:10:23;;;;;;;9.70;6.75;;;10.70;62.70;;;;;;5036825;28;20028;-72
2021/04/18 08:12:59;;;;;;;;;;;11.10;64.80;;;;;;5036671;28;20041;-72
2021/04/18 08:15:25;;;;;;;10.47;6.37;;;11.20;62.40;;;;;;5039049;28;19912;-72
2021/04/18 08:18:12;;;;;;;8.63;6.45;;;11.20;59.30;;;;;;5040427;28;20029;-72
2021/04/18 08:20:46;;;;;;;7.07;6.30;;;11.60;60.50;;;;;;5040023;28;20018;-72
2021/04/18 08:23:15;;;;;;;8.80;6.45;;;11.90;61.70;;;;;;5039987;28;20064;-72
2021/04/18 08:26:04;;;;;;;7.50;6.38;;;12.00;59.10;;;;;;5039662;28;20068;-72
2021/04/18 08:28:48;;;;;;;8.38;7.38;;;11.80;62.10;;;;;;5039240;28;20040;-72
2021/04/18 08:31:14;;;;;;;10.38;6.72;;;11.70;61.40;;;;;;5040034;28;20121;-72
2021/04/18 08:33:40;;;;;;;10.30;7.63;;;11.40;59.40;;;;;;5040056;28;20052;-72
2021/04/18 08:36:20;;;;;;;9.85;7.15;;;11.00;60.50;;;;;;5040086;28;20362;-72
2021/04/18 08:38:48;;;;;;;8.25;7.30;;;11.00;61.70;;;;;;5040012;28;20028;-72
2021/04/18 08:41:15;;;;;;;9.40;7.30;;;11.30;63.60;;;;;;5039944;28;20108;-72
2021/04/18 08:43:43;;;;;;;9.18;6.10;;;11.80;62.40;;;;;;5039542;28;20040;-72
2021/04/18 08:46:09;;;;;;;9.70;6.40;;;11.90;58.70;;;;;;5039872;28;20060;-72
2021/04/18 08:48:35;;;;;;;7.13;6.32;;;11.80;60.90;;;;;;5039826;28;20036;-72
2021/04/18 08:51:07;;;;;;;9.35;7.18;;;11.60;62.90;;;;;;5039723;28;20132;-72
2021/04/18 08:53:52;;;;;;;9.05;6.53;;;11.30;61.70;;;;;;5039529;28;20029;-72
2021/04/18 08:56:18;;;;;;;10.75;7.22;;;11.10;61.00;;;;;;5039667;28;20026;-72
2021/04/18 08:58:43;;;;;;;9.23;7.20;;;10.90;60.30;;;;;;5039618;28;20482;-72
2021/04/18 09:01:11;;;;;;;10.80;7.35;;;10.30;62.60;;;;;;5039302;28;20104;-72
2021/04/18 09:03:40;;;;;;;9.10;7.20;;;10.00;66.00;;;;;;5039175;28;20033;-72
2021/04/18 09:06:13;;;;;;;9.88;8.07;;;10.00;66.80;;;;;;5039498;28;20025;-72
2021/04/18 09:08:49;;;;;;;7.63;6.82;;;10.00;66.20;;;;;;5039168;28;20041;-72
2021/04/18 09:11:14;;;;;;;8.63;7.65;;;10.00;67.50;;;;;;5039332;28;20025;-72
2021/04/18 09:14:00;;;;;;;9.45;8.50;;;10.00;67.30;;;;;;5038937;28;20029;-72
2021/04/18 09:16:27;;;;;;;10.77;8.87;;;10.00;68.10;;;;;;5039093;28;20049;-72
2021/04/18 09:19:13;;;;;;;11.23;8.95;;;10.00;67.90;;;;;;5038930;28;20025;-73
2021/04/18 09:21:39;;;;;;;11.15;9.27;;;9.90;68.60;;;;;;5038802;28;20045;-72
2021/04/18 09:24:05;;;;;;;12.50;9.65;;;9.90;67.70;;;;;;5038876;28;20036;-72
2021/04/18 09:26:31;;;;;;;12.85;10.18;;;9.80;69.40;;;;;;5038108;28;20053;-72
2021/04/18 09:29:13;;;;;;;10.20;9.10;;;9.80;72.00;;;;;;5038757;28;20037;-72
2021/04/18 09:32:03;;;;;;;11.38;9.43;;;9.80;70.80;;;;;;5038979;28;20061;-72
2021/04/18 09:34:30;;;;;;;10.15;9.15;;;9.80;68.50;;;;;;5038898;28;20032;-72
2021/04/18 09:36:57;;;;;;;13.98;10.23;;;9.90;67.60;;;;;;5038897;28;20321;-73
2021/04/18 09:39:30;;;;;;;12.23;9.88;;;9.90;68.80;;;;;;5038903;28;20055;-72
2021/04/18 09:41:57;;;;;;;13.07;10.63;;;10.00;68.60;;;;;;5038573;28;20417;-72
2021/04/18 09:44:33;;;;;;;11.27;10.00;;;10.20;68.20;;;;;;5038717;28;20017;-72
2021/04/18 09:47:05;;;;;;;11.85;10.65;;;10.50;68.80;;;;;;5038461;28;20029;-72
2021/04/18 09:49:48;;;;;;;13.18;10.60;;;10.80;68.10;;;;;;5038610;28;20030;-72
2021/04/18 09:52:33;;;;;;;12.10;10.90;;;11.00;65.40;;;;;;5038621;28;20108;-72
2021/04/18 09:55:14;;;;;;;12.05;10.52;;;11.20;64.30;;;;;;5038691;28;20030;-72
2021/04/18 09:57:59;;;;;;;12.50;11.20;;;11.30;64.30;;;;;;5038258;28;20041;-72
2021/04/18 10:00:31;;;;;;;11.52;9.88;;;11.30;62.10;;;;;;5038450;28;20052;-72
2021/04/18 10:02:57;;;;;;;13.10;10.27;;;11.30;64.70;;;;;;5038398;28;20037;-72
2021/04/18 10:05:24;;;;;;;13.27;11.43;;;11.30;63.10;;;;;;5038211;28;20107;-72
2021/04/18 10:07:49;;;;;;;13.45;10.40;;;11.30;63.80;;;;;;5037882;28;20040;-72
2021/04/18 10:10:32;;;;;;;12.45;11.15;;;11.30;64.50;;;;;;5038162;28;20029;-72
2021/04/18 10:13:00;;;;;;;12.10;10.82;;;11.20;61.60;;;;;;5037658;28;20341;-72
2021/04/18 10:15:26;;;;;;;14.48;11.75;;;11.00;65.20;;;;;;5042035;28;20041;-72
2021/04/18 10:17:52;;;;;;;12.50;11.20;;;10.90;65.80;;;;;;5053334;28;20033;-72
2021/04/18 10:20:29;;;;;;;11.15;9.95;;;10.90;66.40;;;;;;5058037;28;20029;-72
2021/04/18 10:23:06;;;;;;;12.15;9.93;;;10.90;65.30;;;;;;5057631;28;20036;-72
2021/04/18 10:25:32;;;;;;;12.75;10.93;;;10.90;64.30;;;;;;5057598;28;20068;-72
2021/04/18 10:27:58;;;;;;;12.05;10.77;;;10.70;63.50;;;;;;5057859;28;20108;-72
2021/04/18 10:30:23;;;;;;;15.80;10.77;;;10.70;65.80;;;;;;5057427;28;20108;-72
2021/04/18 10:32:50;;;;;;;13.02;10.88;;;10.90;64.70;;;;;;5057692;28;20052;-72
2021/04/18 10:35:16;;;;;;;11.48;9.85;;;11.10;64.00;;;;;;5057361;28;20417;-72
2021/04/18 10:37:41;;;;;;;12.68;11.15;;;11.20;63.10;;;;;;5056819;28;20029;-72
2021/04/18 10:40:07;;;;;;;15.30;10.45;;;11.60;65.70;;;;;;5057571;28;20067;-72
2021/04/18 10:42:33;;;;;;;11.30;10.00;;;11.80;62.80;;;;;;5057570;28;20339;-72
2021/04/18 10:44:58;;;;;;;10.95;9.18;;;12.00;61.70;;;;;;5057454;28;20104;-72
2021/04/18 10:47:24;;;;;;;13.43;9.95;;;11.90;61.50;;;;;;5057528;28;20104;-72
2021/04/18 10:49:50;;;;;;;10.07;9.07;;;11.80;61.80;;;;;;5057451;28;20380;-72
2021/04/18 10:52:16;;;;;;;11.55;9.25;;;11.60;62.40;;;;;;5057117;28;20394;-72
2021/04/18 10:54:42;;;;;;;13.23;10.63;;;11.40;60.50;;;;;;5057011;28;20050;-72
2021/04/18 10:57:09;;;;;;;12.13;9.85;;;11.20;63.30;;;;;;5057386;28;20100;-72
2021/04/18 10:59:34;;;;;;;12.82;10.48;;;11.00;61.60;;;;;;5057319;28;20021;-73
2021/04/18 11:02:00;;;;;;;9.10;8.18;;;10.70;64.90;;;;;;5057267;28;20048;-72
2021/04/18 11:04:25;;;;;;;10.10;8.75;;;10.60;62.20;;;;;;5056891;28;20036;-72
2021/04/18 11:06:51;;;;;;;12.18;10.98;;;10.50;63.60;;;;;;5057192;28;20094;-72
2021/04/18 11:09:17;;;;;;;17.60;11.75;;;10.40;65.20;;;;;;5057228;28;20107;-72
2021/04/18 11:11:43;;;;;;;13.65;11.50;;;10.40;67.90;;;;;;5057074;28;20025;-72
2021/04/18 11:14:09;;;;;;;14.30;12.25;;;10.30;67.70;;;;;;5057027;28;20321;-72
2021/04/18 11:16:34;;;;;;;17.88;13.77;;;10.10;69.90;;;;;;5056775;28;20032;-72
2021/04/18 11:19:01;;;;;;;14.57;11.52;;;9.90;69.60;;;;;;5057107;28;20036;-72
2021/04/18 11:21:27;;;;;;;14.18;11.57;;;9.90;71.70;;;;;;5057046;28;20036;-72
2021/04/18 11:23:55;;;;;;;15.18;12.88;;;9.80;72.50;;;;;;5056920;28;20146;-72
2021/04/18 11:26:25;;;;;;;13.60;12.15;;;9.80;73.50;;;;;;5056537;28;20361;-72
2021/04/18 11:28:51;;;;;;;11.90;10.70;;;9.60;75.30;;;;;;5056913;28;20119;-72
2021/04/18 11:31:17;;;;;;;11.98;10.75;;;9.10;71.70;;;;;;5056521;28;20163;-72
2021/04/18 11:33:43;;;;;;;13.75;12.35;;;8.70;78.20;;;;;;5056467;28;20017;-72
2021/04/18 11:36:09;;;;;;;14.45;12.35;;;8.20;79.80;;;;;;5056831;28;20432;-72
2021/04/18 11:38:35;;;;;;;14.35;12.85;;;8.20;80.80;;;;;;5056827;28;20043;-72
2021/04/18 11:41:01;;;;;;;13.77;11.82;;;8.30;83.90;;;;;;5056835;28;20032;-72
2021/04/18 11:43:27;;;;;;;13.70;12.02;;;8.50;86.20;;;;;;5056425;28;20060;-72
2021/04/18 11:45:53;;;;;;;14.27;11.57;;;8.70;85.60;;;;;;5056760;28;20045;-72
2021/04/18 11:48:19;;;;;;;14.63;12.98;;;8.60;83.70;;;;;;5057585;28;20055;-72
2021/04/18 11:50:45;;;;;;;17.00;12.85;;;8.80;85.00;;;;;;5060845;28;20413;-72
2021/04/18 11:53:10;;;;;;;14.05;12.23;;;9.10;83.50;;;;;;5060766;28;20033;-72
2021/04/18 11:55:37;;;;;;;14.15;11.88;;;9.40;81.70;;;;;;5060358;28;20447;-72
2021/04/18 11:58:06;;;;;;;13.32;10.80;;;9.70;80.20;;;;;;5060385;28;20029;-72
2021/04/18 12:00:33;;;;;;;14.07;11.50;;;9.90;79.10;;;;;;5060686;28;20024;-72
2021/04/18 12:02:58;;;;;;;13.43;10.50;;;10.20;79.30;;;;;;5060609;28;20029;-72
2021/04/18 12:05:25;;;;;;;11.65;10.45;;;10.50;79.30;;;;;;5060174;28;20035;-72
2021/04/18 12:07:50;;;;;;;12.93;10.57;;;10.80;80.20;;;;;;5060543;28;20037;-72
2021/04/18 12:10:16;;;;;;;12.02;10.48;;;10.90;72.80;;;;;;5060430;28;20021;-72
2021/04/18 12:12:42;;;;;;;11.48;10.38;;;11.00;73.20;;;;;;5060180;28;20413;-72
2021/04/18 12:15:13;;;;;;;12.88;11.27;;;11.20;75.00;;;;;;5060358;28;20100;-72
2021/04/18 12:17:38;;;;;;;11.95;9.65;;;11.40;79.10;;;;;;5060404;28;20104;-72
2021/04/18 12:20:07;;;;;;;10.15;9.10;;;11.50;72.60;;;;;;5060324;28;20067;-72
2021/04/18 12:22:33;;;;;;;10.35;9.25;;;11.60;70.20;;;;;;5060133;28;20341;-72
2021/04/18 12:24:59;;;;;;;10.70;9.60;;;11.70;70.00;;;;;;5060039;28;20047;-72
2021/04/18 12:27:25;;;;;;;8.43;7.60;;;11.80;69.70;;;;;;5060169;28;20056;-72
2021/04/18 12:29:52;;;;;;;11.30;9.07;;;11.70;68.30;;;;;;5060093;28;20036;-72
2021/04/18 12:32:17;;;;;;;10.98;8.15;;;11.70;68.60;;;;;;5060089;28;20029;-72
2021/04/18 12:34:43;;;;;;;7.80;6.95;;;11.60;68.10;;;;;;5059699;28;20100;-72
2021/04/18 12:37:09;;;;;;;8.30;6.80;;;11.50;68.60;;;;;;5060008;28;20032;-72
2021/04/18 12:39:34;;;;;;;7.78;6.97;;;11.40;66.00;;;;;;5059967;28;20021;-72
2021/04/18 12:42:01;;;;;;;8.40;6.90;;;11.20;69.20;;;;;;5059622;28;20047;-72
2021/04/18 12:44:27;;;;;;;8.60;7.72;;;11.10;70.10;;;;;;5059800;28;20294;-72
2021/04/18 12:46:54;;;;;;;7.95;7.15;;;11.20;69.60;;;;;;5059804;28;20147;-72
2021/04/18 12:49:20;;;;;;;8.43;7.20;;;11.20;64.10;;;;;;5059519;28;20421;-72